createdAt,value
2022-07-26T13:28:01.293Z,0.80
2022-07-26T13:30:29.468Z,1.40
2022-07-26T13:32:57.212Z,7.88
2022-07-26T13:35:24.934Z,5.93
2022-07-26T13:37:52.770Z,3.33
2022-07-26T13:40:20.423Z,2.47
2022-07-26T13:59:09.091Z,0.50
2022-07-26T14:01:42.951Z,0.30
2022-07-26T14:04:13.115Z,0.10
2022-07-26T14:06:41.442Z,0.10
2022-07-26T14:09:11.020Z,0.35
2022-07-26T14:11:39.588Z,0.77
2022-07-26T14:14:08.139Z,2.38
2022-07-26T14:16:36.199Z,0.63
2022-07-26T14:19:04.339Z,0.15
2022-07-26T14:21:38.764Z,0.38
2022-07-26T14:24:21.338Z,0.15
2022-07-26T14:26:48.856Z,0.00
2022-07-26T14:29:16.351Z,0.22
2022-07-26T14:31:45.168Z,0.03
2022-07-26T14:34:13.204Z,0.88
2022-07-26T14:36:41.233Z,0.30
2022-07-26T14:39:09.334Z,0.40
2022-07-26T14:41:37.447Z,0.50
2022-07-26T14:44:05.526Z,0.30
2022-07-26T14:46:33.287Z,0.17
2022-07-26T14:49:00.797Z,0.03
2022-07-26T14:51:28.270Z,0.10
2022-07-26T14:53:55.997Z,0.32
2022-07-26T14:56:23.819Z,0.20
2022-07-26T14:58:52.314Z,0.20
2022-07-26T15:01:19.910Z,0.30
2022-07-26T15:03:49.633Z,0.40
2022-07-26T15:06:17.863Z,0.63
2022-07-26T15:08:45.080Z,0.30
2022-07-26T15:11:12.712Z,0.20
2022-07-26T15:13:40.376Z,0.40
2022-07-26T15:16:08.210Z,0.05
2022-07-26T15:18:35.926Z,0.28
2022-07-26T15:21:03.877Z,0.32
2022-07-26T15:23:32.224Z,0.00
2022-07-26T15:25:59.900Z,0.10
2022-07-26T15:28:27.472Z,0.30
2022-07-26T15:30:55.080Z,0.80
2022-07-26T15:33:22.604Z,0.15
2022-07-26T15:35:50.819Z,0.10
2022-07-26T15:38:18.579Z,0.10
2022-07-26T15:40:46.063Z,0.57
2022-07-26T15:43:48.152Z,0.50
2022-07-26T15:46:13.663Z,0.28
2022-07-26T15:48:43.612Z,0.50
2022-07-26T15:51:11.083Z,0.40
2022-07-26T15:53:43.087Z,0.15
2022-07-26T15:56:13.859Z,0.13
2022-07-26T15:58:41.944Z,0.30
2022-07-26T16:01:09.395Z,0.60
2022-07-26T16:03:37.050Z,0.10
2022-07-26T16:06:06.101Z,0.10
2022-07-26T16:08:43.150Z,0.25
2022-07-26T16:11:21.418Z,0.13
2022-07-26T16:13:49.313Z,0.30
2022-07-26T16:16:17.212Z,0.10
2022-07-26T16:18:45.097Z,0.00
2022-07-26T16:21:12.934Z,0.17
2022-07-26T16:23:40.486Z,0.20
2022-07-26T16:26:08.595Z,0.60
2022-07-26T16:28:36.606Z,2.35
2022-07-26T16:31:04.670Z,1.55
2022-07-26T16:33:32.296Z,0.63
2022-07-26T16:36:04.324Z,1.58
2022-07-26T16:38:33.816Z,0.63
2022-07-26T16:41:01.277Z,0.40
2022-07-26T16:43:29.013Z,0.38
2022-07-26T16:45:56.887Z,0.00
2022-07-26T16:48:24.668Z,0.20
2022-07-26T16:50:51.973Z,0.47
2022-07-26T16:53:19.758Z,0.43
2022-07-26T16:55:49.701Z,0.08
2022-07-26T16:58:17.844Z,0.10
2022-07-26T17:00:45.925Z,0.50
2022-07-26T17:03:15.953Z,4.78
2022-07-26T17:05:44.607Z,0.40
2022-07-26T17:08:12.055Z,0.30
2022-07-26T17:10:39.815Z,0.28
2022-07-26T17:13:07.534Z,0.22
2022-07-26T17:15:35.352Z,0.45
2022-07-26T17:18:03.042Z,0.20
2022-07-26T17:20:31.079Z,0.00
2022-07-26T17:22:58.647Z,0.50
2022-07-26T17:25:26.185Z,0.00
2022-07-26T17:27:53.583Z,0.40
2022-07-26T17:30:21.295Z,0.20
2022-07-26T17:32:48.734Z,0.15
2022-07-26T17:35:16.571Z,0.68
2022-07-26T17:37:45.204Z,1.23
2022-07-26T17:40:16.416Z,0.82
2022-07-26T17:42:44.075Z,0.40
2022-07-26T17:45:12.040Z,0.75
2022-07-26T17:47:39.470Z,1.00
2022-07-26T17:50:34.070Z,0.77
2022-07-26T17:52:56.112Z,1.02
2022-07-26T17:55:23.641Z,0.93
2022-07-26T17:57:54.722Z,0.68
2022-07-26T18:00:28.614Z,0.93
2022-07-26T18:02:57.357Z,0.98
2022-07-26T18:05:32.049Z,0.60
2022-07-26T18:10:29.109Z,1.08
2022-07-26T18:12:56.835Z,1.00
2022-07-26T18:15:24.398Z,1.02
2022-07-26T18:17:51.925Z,1.13
2022-07-26T18:20:19.476Z,1.08
2022-07-26T18:22:50.428Z,1.20
2022-07-26T18:25:18.402Z,1.10
2022-07-26T18:27:46.045Z,0.90
2022-07-26T18:30:13.622Z,1.00
2022-07-26T18:32:41.271Z,0.90
2022-07-26T18:35:09.254Z,0.95
2022-07-26T18:37:39.222Z,0.98
2022-07-26T18:40:07.320Z,0.90
2022-07-26T18:42:36.330Z,1.00
2022-07-26T18:45:06.936Z,0.75
2022-07-26T18:47:34.594Z,1.20
2022-07-26T18:50:02.156Z,1.10
2022-07-26T18:52:31.992Z,1.40
2022-07-26T18:55:01.241Z,1.48
2022-07-26T18:57:29.185Z,0.95
2022-07-26T18:59:57.217Z,1.00
2022-07-26T19:02:24.879Z,1.00
2022-07-26T19:04:52.989Z,0.90
2022-07-26T19:07:20.623Z,1.08
2022-07-26T19:09:48.125Z,1.25
2022-07-26T19:12:15.633Z,1.23
2022-07-26T19:14:45.777Z,1.23
2022-07-26T19:17:13.048Z,1.38
2022-07-26T19:19:41.409Z,1.20
2022-07-26T19:22:08.875Z,1.63
2022-07-26T19:24:39.017Z,1.02
2022-07-26T19:27:09.722Z,1.10
2022-07-26T19:29:38.242Z,0.85
2022-07-26T19:32:06.197Z,1.08
2022-07-26T19:34:33.526Z,0.95
2022-07-26T19:37:01.247Z,1.10
2022-07-26T19:39:28.884Z,1.33
2022-07-26T19:41:56.227Z,1.35
2022-07-26T19:44:23.749Z,1.27
2022-07-26T19:46:56.982Z,1.35
2022-07-26T19:49:25.470Z,1.55
2022-07-26T19:51:55.546Z,1.13
2022-07-26T19:54:23.248Z,1.17
2022-07-26T19:56:55.892Z,1.60
2022-07-26T19:59:24.732Z,1.77
2022-07-26T20:01:55.233Z,1.02
2022-07-26T20:04:26.394Z,1.00
2022-07-26T20:06:54.991Z,1.17
2022-07-26T20:09:22.569Z,0.90
2022-07-26T20:11:51.196Z,1.48
2022-07-26T20:14:21.984Z,1.00
2022-07-26T20:16:54.298Z,0.90
2022-07-26T20:19:24.363Z,1.33
2022-07-26T20:21:51.932Z,1.40
2022-07-26T20:24:21.723Z,1.30
2022-07-26T20:26:51.970Z,1.40
2022-07-26T20:29:21.942Z,1.27
2022-07-26T20:31:49.502Z,1.67
2022-07-26T20:34:16.772Z,1.73
2022-07-26T20:36:44.456Z,1.75
2022-07-26T20:39:12.468Z,1.08
2022-07-26T20:41:40.609Z,1.25
2022-07-26T20:44:08.913Z,1.90
2022-07-26T20:46:40.163Z,1.75
2022-07-26T20:49:08.851Z,1.55
2022-07-26T20:51:36.947Z,1.02
2022-07-26T20:54:04.707Z,1.25
2022-07-26T20:56:35.210Z,1.30
2022-07-26T20:59:03.368Z,1.00
2022-07-26T21:01:32.771Z,1.42
2022-07-26T21:04:00.438Z,1.20
2022-07-26T21:06:30.421Z,1.40
2022-07-26T21:08:58.048Z,1.13
2022-07-26T21:11:25.841Z,1.25
2022-07-26T21:13:53.678Z,1.33
2022-07-26T21:16:21.395Z,1.17
2022-07-26T21:18:52.614Z,1.38
2022-07-26T21:21:21.578Z,1.40
2022-07-26T21:23:51.647Z,1.50
2022-07-26T21:26:19.229Z,1.75
2022-07-26T21:28:49.184Z,1.90
2022-07-26T21:31:16.754Z,1.90
2022-07-26T21:33:45.066Z,1.10
2022-07-26T21:36:14.418Z,1.40
2022-07-26T21:38:42.644Z,1.10
2022-07-26T21:41:25.578Z,1.27
2022-07-26T21:43:54.417Z,0.90
2022-07-26T21:46:22.271Z,1.13
2022-07-26T21:48:50.202Z,1.00
2022-07-26T21:51:17.697Z,0.98
2022-07-26T21:53:45.325Z,1.17
2022-07-26T21:56:12.823Z,1.20
2022-07-26T21:58:40.917Z,1.30
2022-07-26T22:01:11.246Z,1.02
2022-07-26T22:03:39.687Z,1.05
2022-07-26T22:06:08.227Z,1.05
2022-07-26T22:08:35.806Z,0.90
2022-07-26T22:11:03.550Z,1.20
2022-07-26T22:13:31.254Z,1.05
2022-07-26T22:15:58.655Z,0.77
2022-07-26T22:18:26.246Z,1.40
2022-07-26T22:20:56.693Z,0.47
2022-07-26T22:23:30.157Z,1.08
2022-07-26T22:26:02.334Z,0.60
2022-07-26T22:28:31.026Z,1.00
2022-07-26T22:30:58.778Z,1.38
2022-07-26T22:33:26.480Z,1.17
2022-07-26T22:35:53.830Z,0.80
2022-07-26T22:38:21.243Z,0.00
2022-07-26T22:40:49.188Z,0.45
2022-07-26T22:43:16.903Z,0.65
2022-07-26T22:45:44.775Z,0.32
2022-07-26T22:53:51.299Z,0.38
2022-07-26T22:56:19.847Z,0.55
2022-07-26T22:58:48.140Z,0.00
2022-07-26T23:01:16.842Z,0.00
2022-07-26T23:03:49.695Z,0.00
2022-07-26T23:06:31.153Z,0.10
2022-07-26T23:08:59.440Z,0.00
2022-07-26T23:11:26.970Z,0.10
2022-07-26T23:13:58.851Z,0.20
2022-07-26T23:16:27.217Z,0.20
2022-07-26T23:18:58.951Z,0.15
2022-07-26T23:21:27.783Z,0.20
2022-07-26T23:23:55.538Z,0.30
2022-07-26T23:26:23.126Z,0.20
2022-07-26T23:28:50.621Z,0.20
2022-07-26T23:31:18.172Z,0.28
2022-07-26T23:33:53.453Z,0.10
2022-07-26T23:36:31.000Z,0.20
2022-07-26T23:38:59.776Z,0.00
2022-07-26T23:41:27.802Z,0.00
2022-07-26T23:43:55.987Z,0.10
2022-07-26T23:46:24.691Z,0.00
2022-07-26T23:48:52.373Z,0.10
2022-07-26T23:51:20.353Z,0.20
2022-07-26T23:53:48.054Z,0.10
2022-07-26T23:56:15.636Z,0.20
2022-07-26T23:58:43.443Z,0.00
